createdAt,value
2019-05-03T00:02:14.982Z,83.30
2019-05-03T00:04:46.455Z,82.60
2019-05-03T00:07:16.754Z,81.90
2019-05-03T00:09:47.230Z,74.00
2019-05-03T00:12:17.587Z,67.80
2019-05-03T00:14:51.992Z,65.80
2019-05-03T00:17:22.555Z,64.50
2019-05-03T00:19:52.999Z,63.00
2019-05-03T00:22:23.371Z,63.10
2019-05-03T00:25:05.299Z,62.30
2019-05-03T00:27:25.925Z,61.00
2019-05-03T00:29:56.306Z,60.80
2019-05-03T00:32:28.515Z,60.70
2019-05-03T00:35:01.825Z,60.40
2019-05-03T00:37:34.223Z,60.30
2019-05-03T00:40:06.487Z,60.10
2019-05-03T00:42:37.355Z,59.90
2019-05-03T00:45:08.211Z,59.50
2019-05-03T00:47:38.556Z,60.20
2019-05-03T00:50:09.037Z,60.10
2019-05-03T00:52:39.507Z,61.20
2019-05-03T00:55:16.326Z,60.20
2019-05-03T00:57:41.963Z,60.30
2019-05-03T01:00:12.592Z,61.80
2019-05-03T01:02:42.938Z,67.10
2019-05-03T01:05:13.315Z,69.40
2019-05-03T01:07:43.862Z,71.80
2019-05-03T01:10:15.048Z,71.20
2019-05-03T01:12:45.426Z,72.40
2019-05-03T01:15:26.036Z,72.30
2019-05-03T01:17:56.826Z,71.80
2019-05-03T01:20:27.184Z,73.20
2019-05-03T01:22:57.650Z,74.00
2019-05-03T01:25:32.193Z,72.80
2019-05-03T01:28:01.522Z,71.60
2019-05-03T01:30:32.109Z,68.60
2019-05-03T01:33:02.874Z,68.00
2019-05-03T01:35:33.475Z,68.30
2019-05-03T01:38:03.852Z,72.10
2019-05-03T01:40:34.320Z,73.20
2019-05-03T01:43:04.703Z,77.00
2019-05-03T01:45:35.311Z,78.60
2019-05-03T01:48:18.351Z,81.60
2019-05-03T01:50:56.450Z,84.00
2019-05-03T01:53:27.926Z,87.10
2019-05-03T01:55:58.242Z,90.30
2019-05-03T01:58:28.602Z,91.00
2019-05-03T02:01:10.228Z,91.70
2019-05-03T02:03:47.334Z,92.20
2019-05-03T02:06:17.609Z,92.70
2019-05-03T02:08:48.094Z,93.40
2019-05-03T02:11:18.554Z,93.90
2019-05-03T02:13:48.922Z,94.80
2019-05-03T02:16:19.438Z,95.70
2019-05-03T02:18:51.682Z,96.80
2019-05-03T02:21:21.815Z,96.30
2019-05-03T02:23:52.222Z,96.50
2019-05-03T02:26:22.562Z,96.40
2019-05-03T02:28:52.955Z,96.20
2019-05-03T02:31:23.430Z,96.10
2019-05-03T02:33:53.884Z,96.40
2019-05-03T02:36:24.319Z,96.10
2019-05-03T02:38:54.878Z,97.40
2019-05-03T02:41:25.267Z,96.80
2019-05-03T02:43:56.266Z,96.20
2019-05-03T02:46:45.467Z,96.50
2019-05-03T02:49:29.371Z,96.50
2019-05-03T02:51:59.735Z,97.10
2019-05-03T02:54:30.187Z,96.90
2019-05-03T02:57:00.492Z,97.00
2019-05-03T02:59:31.063Z,97.70
2019-05-03T03:02:01.520Z,97.90
2019-05-03T03:04:35.137Z,98.20
2019-05-03T03:07:05.678Z,99.20
2019-05-03T03:09:36.562Z,99.20
2019-05-03T03:12:08.433Z,99.30
2019-05-03T03:14:40.479Z,99.70
2019-05-03T03:17:12.056Z,99.90
2019-05-03T03:19:46.144Z,99.90
2019-05-03T03:22:18.189Z,99.90
2019-05-03T03:24:50.426Z,99.90
2019-05-03T03:27:25.639Z,99.90
2019-05-03T03:30:28.886Z,99.90
2019-05-03T03:32:58.063Z,99.90
2019-05-03T03:35:30.712Z,99.90
2019-05-03T03:38:01.074Z,99.90
2019-05-03T03:40:31.756Z,99.90
2019-05-03T03:43:05.380Z,99.90
2019-05-03T03:45:36.469Z,99.90
2019-05-03T03:48:06.969Z,99.90
2019-05-03T03:50:39.241Z,99.90
2019-05-03T03:53:11.640Z,99.90
2019-05-03T03:55:45.854Z,99.90
2019-05-03T03:58:22.331Z,99.90
2019-05-03T04:00:48.876Z,99.90
2019-05-03T04:03:19.356Z,99.90
2019-05-03T04:05:49.864Z,99.90
2019-05-03T04:08:20.396Z,99.90
2019-05-03T04:10:50.763Z,99.90
2019-05-03T04:13:22.447Z,99.90
2019-05-03T04:16:10.716Z,99.90
2019-05-03T04:18:51.651Z,99.90
2019-05-03T04:21:25.450Z,99.90
2019-05-03T04:23:56.178Z,99.90
2019-05-03T04:26:29.780Z,99.90
2019-05-03T04:28:59.064Z,99.90
2019-05-03T04:31:29.752Z,99.90
2019-05-03T04:34:00.279Z,99.90
2019-05-03T04:36:30.789Z,99.90
2019-05-03T04:39:01.443Z,99.90
2019-05-03T04:41:32.120Z,99.90
2019-05-03T04:44:06.338Z,99.90
2019-05-03T04:46:37.159Z,99.90
2019-05-03T04:49:07.745Z,99.90
2019-05-03T04:51:38.371Z,99.90
2019-05-03T04:54:35.600Z,99.90
2019-05-03T04:57:06.559Z,99.90
2019-05-03T04:59:37.208Z,99.90
2019-05-03T05:02:07.662Z,99.90
2019-05-03T05:04:38.126Z,99.90
2019-05-03T05:07:08.551Z,99.90
2019-05-03T05:09:38.979Z,99.90
2019-05-03T05:12:09.339Z,99.60
2019-05-03T05:14:39.712Z,99.90
2019-05-03T05:17:11.748Z,99.80
2019-05-03T05:19:58.478Z,98.40
2019-05-03T05:22:30.837Z,99.10
2019-05-03T05:25:04.523Z,98.60
2019-05-03T05:27:49.453Z,98.10
2019-05-03T05:30:16.084Z,95.70
2019-05-03T05:32:46.435Z,94.00
2019-05-03T05:35:17.097Z,93.30
2019-05-03T05:37:47.447Z,91.30
2019-05-03T05:40:21.158Z,90.20
2019-05-03T05:42:51.579Z,88.40
2019-05-03T05:45:22.043Z,87.30
2019-05-03T05:47:58.167Z,87.80
2019-05-03T05:50:31.099Z,89.30
2019-05-03T05:53:01.790Z,91.20
2019-05-03T05:56:00.272Z,91.80
2019-05-03T05:58:47.984Z,92.10
2019-05-03T06:01:22.551Z,91.60
2019-05-03T06:03:54.970Z,91.30
2019-05-03T06:06:45.147Z,90.30
2019-05-03T06:09:23.016Z,90.00
2019-05-03T06:12:00.512Z,89.80
2019-05-03T06:14:54.431Z,90.30
2019-05-03T06:17:29.843Z,90.50
2019-05-03T06:20:20.007Z,89.80
2019-05-03T06:23:14.487Z,87.40
2019-05-03T06:25:45.369Z,82.60
2019-05-03T06:28:25.064Z,84.60
2019-05-03T06:31:14.778Z,81.50
2019-05-03T06:33:45.130Z,82.00
2019-05-03T06:36:15.673Z,82.70
2019-05-03T06:38:46.127Z,79.40
2019-05-03T06:41:16.483Z,77.70
2019-05-03T06:43:48.791Z,76.90
2019-05-03T06:46:23.528Z,72.60
2019-05-03T06:48:54.310Z,72.60
2019-05-03T06:51:24.918Z,74.70
2019-05-03T06:53:55.332Z,73.40
2019-05-03T06:56:29.132Z,73.70
2019-05-03T06:58:57.719Z,71.80
2019-05-03T07:01:34.572Z,70.70
2019-05-03T07:04:10.399Z,71.80
2019-05-03T07:06:48.419Z,70.90
2019-05-03T07:09:37.706Z,71.50
2019-05-03T07:12:07.994Z,75.00
2019-05-03T07:14:38.454Z,75.10
2019-05-03T07:17:08.734Z,71.40
2019-05-03T07:19:39.075Z,71.30
2019-05-03T07:22:09.655Z,71.10
2019-05-03T07:24:40.894Z,72.00
2019-05-03T07:27:11.473Z,68.50
2019-05-03T07:29:41.926Z,68.90
2019-05-03T07:32:12.427Z,68.30
2019-05-03T07:34:42.874Z,68.20
2019-05-03T07:37:14.519Z,67.20
2019-05-03T07:39:45.383Z,64.40
2019-05-03T07:42:15.777Z,64.20
2019-05-03T07:44:46.170Z,63.90
2019-05-03T07:47:16.454Z,63.20
2019-05-03T07:49:46.896Z,61.90
2019-05-03T07:52:17.356Z,64.60
2019-05-03T07:54:47.698Z,63.70
2019-05-03T07:57:38.561Z,61.40
2019-05-03T08:00:09.611Z,59.50
2019-05-03T08:02:39.982Z,56.90
2019-05-03T08:05:10.438Z,53.20
2019-05-03T08:07:40.800Z,52.70
2019-05-03T08:10:11.258Z,52.60
2019-05-03T08:12:41.518Z,51.40
2019-05-03T08:15:11.806Z,52.00
2019-05-03T08:17:42.155Z,52.70
2019-05-03T08:20:14.293Z,54.50
2019-05-03T08:22:44.864Z,52.60
2019-05-03T08:25:15.314Z,51.90
2019-05-03T08:27:45.667Z,52.30
2019-05-03T08:30:20.555Z,52.70
2019-05-03T08:33:09.771Z,52.50
2019-05-03T08:35:42.470Z,54.40
2019-05-03T08:38:12.819Z,54.20
2019-05-03T08:40:46.460Z,54.20
2019-05-03T08:43:16.931Z,53.90
2019-05-03T08:45:47.394Z,54.50
2019-05-03T08:48:17.686Z,55.90
2019-05-03T08:50:48.041Z,54.70
2019-05-03T08:53:18.398Z,54.70
2019-05-03T08:55:48.743Z,50.90
2019-05-03T08:58:19.483Z,50.50
2019-05-03T09:00:49.883Z,49.20
2019-05-03T09:03:20.310Z,51.40
2019-05-03T09:05:50.679Z,47.30
2019-05-03T09:08:21.123Z,48.50
2019-05-03T09:10:58.430Z,45.70
2019-05-03T09:13:41.671Z,46.10
2019-05-03T09:16:12.058Z,45.70
2019-05-03T09:18:42.528Z,43.20
2019-05-03T09:21:14.691Z,45.30
2019-05-03T09:23:45.181Z,45.70
2019-05-03T09:26:15.627Z,44.60
2019-05-03T09:28:45.994Z,45.50
2019-05-03T09:31:16.508Z,44.20
2019-05-03T09:33:46.974Z,43.70
2019-05-03T09:36:17.257Z,46.50
2019-05-03T09:38:48.427Z,47.20
2019-05-03T09:41:18.766Z,48.20
2019-05-03T09:43:49.140Z,50.00
2019-05-03T09:46:19.585Z,48.00
2019-05-03T09:48:50.032Z,48.70
2019-05-03T09:51:20.497Z,50.40
2019-05-03T09:53:56.124Z,50.50
2019-05-03T09:56:53.551Z,50.40
2019-05-03T09:59:16.439Z,49.20
2019-05-03T10:01:46.795Z,51.40
2019-05-03T10:04:18.090Z,50.40
2019-05-03T10:06:48.534Z,49.80
2019-05-03T10:09:18.886Z,50.30
2019-05-03T10:11:49.162Z,50.80
2019-05-03T10:14:19.440Z,52.20
2019-05-03T10:17:07.689Z,53.40
2019-05-03T10:19:40.405Z,54.40
2019-05-03T10:22:10.314Z,57.30
2019-05-03T10:24:40.699Z,57.00
2019-05-03T10:27:11.056Z,58.10
2019-05-03T10:29:41.801Z,58.50
2019-05-03T10:32:22.080Z,60.00
2019-05-03T10:34:57.974Z,60.70
2019-05-03T10:37:32.203Z,62.00
2019-05-03T10:40:07.754Z,62.20
2019-05-03T10:42:36.030Z,64.00
2019-05-03T10:45:06.782Z,62.80
2019-05-03T10:47:37.139Z,62.50
2019-05-03T10:50:07.680Z,64.40
2019-05-03T10:52:44.637Z,65.60
2019-05-03T10:55:15.887Z,67.40
2019-05-03T10:57:49.242Z,68.90
2019-05-03T11:00:42.393Z,68.70
2019-05-03T11:03:01.717Z,70.90
2019-05-03T11:05:32.034Z,74.60
2019-05-03T11:08:04.906Z,77.60
2019-05-03T11:10:34.818Z,82.30
2019-05-03T11:13:05.903Z,84.40
2019-05-03T11:15:36.306Z,87.30
2019-05-03T11:18:06.667Z,93.00
2019-05-03T11:20:37.800Z,92.90
2019-05-03T11:23:08.842Z,96.10
2019-05-03T11:25:39.306Z,96.60
2019-05-03T11:28:22.107Z,95.90
2019-05-03T11:30:57.800Z,96.30
2019-05-03T11:33:39.719Z,99.90
2019-05-03T11:36:27.756Z,95.00
2019-05-03T11:38:59.664Z,98.40
2019-05-03T11:41:32.857Z,98.00
2019-05-03T11:44:21.185Z,99.90
2019-05-03T11:46:51.644Z,99.90
2019-05-03T11:49:22.491Z,96.90
2019-05-03T11:51:52.834Z,97.40
2019-05-03T11:54:25.013Z,93.30
2019-05-03T11:56:56.029Z,92.20
2019-05-03T11:59:26.618Z,92.00
2019-05-03T12:02:08.572Z,90.20
2019-05-03T12:04:38.963Z,88.90
2019-05-03T12:07:09.484Z,83.80
2019-05-03T12:09:39.951Z,86.20
2019-05-03T12:12:11.895Z,82.80
2019-05-03T12:14:42.434Z,82.70
2019-05-03T12:17:20.978Z,83.90
2019-05-03T12:19:48.104Z,81.30
2019-05-03T12:22:19.110Z,80.40
2019-05-03T12:24:50.239Z,85.40
2019-05-03T12:27:20.774Z,81.30
2019-05-03T12:29:52.482Z,79.90
2019-05-03T12:32:25.032Z,75.50
2019-05-03T12:34:55.247Z,75.10
2019-05-03T12:37:25.622Z,75.60
2019-05-03T12:39:56.066Z,76.50
2019-05-03T12:42:26.448Z,76.90
2019-05-03T12:44:56.787Z,80.00
2019-05-03T12:47:27.159Z,80.10
2019-05-03T12:49:57.621Z,75.60
2019-05-03T12:52:28.686Z,81.70
2019-05-03T12:54:59.232Z,78.20
2019-05-03T12:57:29.571Z,74.80
2019-05-03T13:00:25.083Z,74.30
2019-05-03T13:03:15.241Z,72.20
2019-05-03T13:05:45.772Z,72.90
2019-05-03T13:08:36.907Z,73.00
2019-05-03T13:11:07.630Z,73.90
2019-05-03T13:13:37.972Z,65.40
2019-05-03T13:16:09.678Z,61.10
2019-05-03T13:18:40.002Z,59.20
2019-05-03T13:21:11.209Z,61.70
2019-05-03T13:23:41.753Z,61.70
2019-05-03T13:26:14.551Z,65.30
2019-05-03T13:28:45.663Z,66.70
2019-05-03T13:31:16.303Z,63.60
2019-05-03T13:33:46.684Z,63.80
2019-05-03T13:36:17.159Z,65.50
2019-05-03T13:38:47.911Z,68.00
2019-05-03T13:41:18.258Z,66.60
2019-05-03T13:43:48.669Z,65.80
2019-05-03T13:46:19.063Z,65.70
2019-05-03T13:48:49.632Z,66.40
2019-05-03T13:51:20.081Z,71.60
2019-05-03T13:53:50.603Z,76.00
2019-05-03T13:56:21.107Z,73.20
2019-05-03T13:58:51.486Z,79.50
2019-05-03T14:01:22.026Z,84.70
2019-05-03T14:03:54.508Z,85.70
2019-05-03T14:06:24.724Z,86.50
2019-05-03T14:08:55.204Z,83.20
2019-05-03T14:11:25.579Z,91.50
2019-05-03T14:13:55.954Z,99.90
2019-05-03T14:16:26.224Z,99.90
2019-05-03T14:19:01.191Z,99.90
2019-05-03T14:21:45.160Z,99.90
2019-05-03T14:24:15.878Z,99.90
2019-05-03T14:26:46.396Z,99.90
2019-05-03T14:29:16.864Z,99.90
2019-05-03T14:31:47.221Z,99.90
2019-05-03T14:34:17.740Z,99.90
2019-05-03T14:36:48.356Z,99.90
2019-05-03T14:39:18.758Z,99.90
2019-05-03T14:41:49.114Z,99.90
2019-05-03T14:44:19.567Z,99.90
2019-05-03T14:46:50.030Z,99.90
2019-05-03T14:49:20.409Z,99.90
2019-05-03T14:51:50.926Z,99.90
2019-05-03T14:54:24.821Z,99.90
2019-05-03T14:57:01.622Z,99.90
2019-05-03T14:59:49.618Z,99.90
2019-05-03T15:02:39.792Z,99.90
2019-05-03T15:04:58.545Z,99.90
2019-05-03T15:07:28.902Z,99.90
2019-05-03T15:09:59.250Z,99.90
2019-05-03T15:12:29.757Z,99.90
2019-05-03T15:15:00.651Z,99.90
2019-05-03T15:17:31.043Z,99.90
2019-05-03T15:20:01.394Z,99.90
2019-05-03T15:22:31.786Z,99.90
2019-05-03T15:25:02.243Z,99.90
2019-05-03T15:27:32.710Z,99.90
2019-05-03T15:30:04.850Z,99.90
2019-05-03T15:32:35.434Z,99.90
2019-05-03T15:35:06.851Z,99.90
2019-05-03T15:37:37.214Z,99.90
2019-05-03T15:40:09.370Z,99.90
2019-05-03T15:42:42.174Z,99.90
2019-05-03T15:45:26.751Z,99.90
2019-05-03T15:48:08.396Z,99.90
2019-05-03T15:50:38.750Z,99.90
2019-05-03T15:53:09.215Z,99.90
2019-05-03T15:55:39.559Z,99.90
2019-05-03T15:58:09.970Z,99.90
2019-05-03T16:00:40.351Z,99.90
2019-05-03T16:03:11.295Z,99.90
2019-05-03T16:05:41.910Z,99.90
2019-05-03T16:08:12.371Z,99.90
2019-05-03T16:10:42.643Z,99.90
2019-05-03T16:13:14.286Z,99.90
2019-05-03T16:15:44.844Z,99.90
2019-05-03T16:18:15.201Z,99.90
2019-05-03T16:20:45.655Z,99.90
2019-05-03T16:23:16.235Z,99.90
2019-05-03T16:25:46.758Z,99.90
2019-05-03T16:28:26.698Z,99.90
2019-05-03T16:30:59.830Z,99.90
2019-05-03T16:33:30.143Z,99.90
2019-05-03T16:36:00.608Z,99.90
2019-05-03T16:38:31.075Z,99.90
2019-05-03T16:41:01.515Z,99.90
2019-05-03T16:43:32.334Z,99.90
2019-05-03T16:46:02.645Z,99.90
2019-05-03T16:48:35.171Z,99.90
2019-05-03T16:51:05.100Z,99.90
2019-05-03T16:53:35.605Z,99.90
2019-05-03T16:56:06.650Z,99.90
2019-05-03T16:58:37.230Z,99.90
2019-05-03T17:01:07.675Z,99.90
2019-05-03T17:03:45.432Z,99.90
2019-05-03T17:06:40.384Z,99.90
2019-05-03T17:09:29.871Z,99.90
2019-05-03T17:12:09.710Z,99.90
2019-05-03T17:14:40.336Z,99.90
2019-05-03T17:17:10.776Z,99.90
2019-05-03T17:19:41.251Z,99.90
2019-05-03T17:22:11.654Z,99.90
2019-05-03T17:24:42.014Z,99.90
2019-05-03T17:27:12.415Z,99.90
2019-05-03T17:29:44.540Z,99.90
2019-05-03T17:32:15.422Z,99.90
2019-05-03T17:34:45.990Z,99.90
2019-05-03T17:37:16.498Z,99.90
2019-05-03T17:40:01.814Z,99.90
2019-05-03T17:42:50.015Z,99.90
2019-05-03T17:45:25.799Z,99.90
2019-05-03T17:47:56.335Z,99.90
2019-05-03T17:50:26.642Z,99.90
2019-05-03T17:53:05.859Z,99.90
2019-05-03T17:55:45.726Z,99.90
2019-05-03T17:58:26.037Z,99.90
2019-05-03T18:01:06.326Z,99.90
2019-05-03T18:03:39.294Z,99.90
2019-05-03T18:06:16.707Z,99.90
2019-05-03T18:08:55.121Z,99.90
2019-05-03T18:11:29.419Z,99.90
2019-05-03T18:13:59.906Z,99.90
2019-05-03T18:16:30.272Z,99.90
2019-05-03T18:19:00.701Z,99.90
2019-05-03T18:21:31.026Z,99.90
2019-05-03T18:24:01.533Z,99.90
2019-05-03T18:26:31.900Z,99.90
2019-05-03T18:29:02.504Z,99.90
2019-05-03T18:31:33.483Z,99.90
2019-05-03T18:34:06.318Z,99.90
2019-05-03T18:36:35.751Z,99.90
2019-05-03T18:39:08.381Z,99.90
2019-05-03T18:41:38.935Z,99.90
2019-05-03T18:44:21.404Z,99.90
2019-05-03T18:46:55.058Z,99.90
2019-05-03T18:49:25.937Z,99.90
2019-05-03T18:51:56.377Z,99.90
2019-05-03T18:54:26.806Z,99.90
2019-05-03T18:56:57.190Z,99.90
2019-05-03T18:59:27.562Z,99.90
2019-05-03T19:01:58.002Z,99.90
2019-05-03T19:04:38.034Z,99.90
2019-05-03T19:07:16.687Z,99.90
2019-05-03T19:10:01.960Z,99.90
2019-05-03T19:13:01.278Z,99.90
2019-05-03T19:15:34.568Z,99.90
2019-05-03T19:18:15.437Z,99.90
2019-05-03T19:20:46.183Z,99.90
2019-05-03T19:23:16.810Z,99.90
2019-05-03T19:25:49.545Z,99.90
2019-05-03T19:28:19.301Z,99.90
2019-05-03T19:30:49.739Z,99.90
2019-05-03T19:33:20.258Z,99.90
2019-05-03T19:35:50.638Z,99.90
2019-05-03T19:38:20.898Z,99.90
2019-05-03T19:40:51.458Z,99.90
2019-05-03T19:43:22.203Z,99.90
2019-05-03T19:45:52.618Z,99.90
2019-05-03T19:48:23.052Z,99.90
2019-05-03T19:50:54.867Z,99.90
2019-05-03T19:53:50.451Z,99.90
2019-05-03T19:56:21.729Z,99.90
2019-05-03T19:58:59.971Z,99.90
2019-05-03T20:01:48.062Z,99.90
2019-05-03T20:04:43.313Z,99.90
2019-05-03T20:07:36.599Z,99.90
2019-05-03T20:10:07.505Z,99.90
2019-05-03T20:12:38.114Z,99.90
2019-05-03T20:15:08.782Z,99.90
2019-05-03T20:17:39.190Z,99.90
2019-05-03T20:20:09.787Z,99.90
2019-05-03T20:22:40.386Z,99.90
2019-05-03T20:25:11.023Z,99.90
2019-05-03T20:27:41.523Z,99.90
2019-05-03T20:30:12.298Z,99.90
2019-05-03T20:32:44.906Z,99.90
2019-05-03T20:35:18.864Z,99.90
2019-05-03T20:37:46.631Z,99.90
2019-05-03T20:40:17.649Z,99.90
2019-05-03T20:43:01.229Z,99.90
2019-05-03T20:46:05.730Z,99.90
2019-05-03T20:48:37.143Z,99.90
2019-05-03T20:51:07.815Z,99.90
2019-05-03T20:53:38.231Z,99.90
2019-05-03T20:56:08.787Z,99.90
2019-05-03T20:58:39.218Z,99.90
2019-05-03T21:01:09.591Z,99.90
2019-05-03T21:03:41.251Z,99.90
2019-05-03T21:06:11.914Z,99.90
2019-05-03T21:08:52.192Z,99.90
2019-05-03T21:11:14.758Z,99.90
2019-05-03T21:13:45.359Z,99.90
2019-05-03T21:16:34.663Z,99.90
2019-05-03T21:19:15.883Z,99.90
2019-05-03T21:21:49.147Z,99.90
2019-05-03T21:24:36.093Z,99.90
2019-05-03T21:27:06.570Z,99.90
2019-05-03T21:29:49.796Z,99.90
2019-05-03T21:32:20.256Z,99.90
2019-05-03T21:34:50.798Z,99.90
2019-05-03T21:37:21.083Z,99.90
2019-05-03T21:39:51.439Z,99.90
2019-05-03T21:42:21.931Z,99.90
2019-05-03T21:44:52.324Z,99.90
2019-05-03T21:47:44.382Z,99.90
2019-05-03T21:50:17.528Z,99.90
2019-05-03T21:52:47.867Z,99.90
2019-05-03T21:55:18.178Z,99.90
2019-05-03T21:57:48.542Z,99.90
2019-05-03T22:00:19.652Z,99.90
2019-05-03T22:02:50.118Z,99.90
2019-05-03T22:05:20.491Z,99.90
2019-05-03T22:07:50.971Z,99.90
2019-05-03T22:10:21.827Z,99.90
2019-05-03T22:12:54.324Z,99.90
2019-05-03T22:15:35.506Z,99.90
2019-05-03T22:18:12.677Z,99.90
2019-05-03T22:21:05.567Z,99.90
2019-05-03T22:24:07.342Z,99.90
2019-05-03T22:26:55.507Z,99.90
2019-05-03T22:29:25.999Z,99.90
2019-05-03T22:31:56.349Z,99.90
2019-05-03T22:34:26.690Z,99.90
2019-05-03T22:36:57.144Z,99.90
2019-05-03T22:39:27.611Z,99.90
2019-05-03T22:41:57.966Z,99.90
2019-05-03T22:44:28.307Z,99.90
2019-05-03T22:46:58.763Z,99.90
2019-05-03T22:49:29.247Z,99.90
2019-05-03T22:51:59.602Z,99.90
2019-05-03T22:54:30.094Z,99.90
2019-05-03T22:57:00.466Z,99.90
2019-05-03T22:59:30.926Z,99.90
2019-05-03T23:02:01.275Z,99.90
2019-05-03T23:04:31.619Z,99.90
2019-05-03T23:07:02.004Z,99.90
2019-05-03T23:09:32.346Z,99.90
2019-05-03T23:12:02.710Z,99.90
2019-05-03T23:14:34.702Z,99.90
2019-05-03T23:17:05.253Z,99.90
2019-05-03T23:19:37.177Z,99.90
2019-05-03T23:22:29.123Z,99.90
2019-05-03T23:24:59.482Z,99.90
2019-05-03T23:27:29.851Z,99.90
2019-05-03T23:30:00.720Z,99.90
2019-05-03T23:32:31.068Z,99.90
2019-05-03T23:35:01.544Z,99.90
2019-05-03T23:37:32.023Z,99.90
2019-05-03T23:40:04.320Z,99.90
2019-05-03T23:42:35.084Z,99.90
2019-05-03T23:45:05.739Z,99.90
2019-05-03T23:47:45.184Z,99.90
2019-05-03T23:50:18.088Z,99.90
2019-05-03T23:52:48.451Z,99.90
2019-05-03T23:55:40.774Z,99.90
2019-05-03T23:58:11.252Z,99.90
